createdAt,value
2023-05-23T00:01:08.066Z,13.25
2023-05-23T00:03:35.503Z,14.52
2023-05-23T00:04:52.057Z,14.52
2023-05-23T00:06:02.516Z,14.51
2023-05-23T00:08:29.035Z,12.32
2023-05-23T00:09:52.052Z,12.32
2023-05-23T00:10:55.451Z,14.08
2023-05-23T00:13:21.991Z,13.52
2023-05-23T00:14:52.119Z,13.52
2023-05-23T00:15:48.627Z,14.53
2023-05-23T00:18:16.325Z,14.27
2023-05-23T00:19:52.060Z,14.27
2023-05-23T00:20:43.507Z,14.65
2023-05-23T00:23:13.742Z,14.54
2023-05-23T00:24:52.086Z,14.54
2023-05-23T00:25:41.352Z,14.33
2023-05-23T00:28:08.197Z,14.03
2023-05-23T00:29:52.177Z,14.03
2023-05-23T00:30:34.655Z,14.68
2023-05-23T00:33:01.618Z,14.92
2023-05-23T00:34:52.099Z,14.92
2023-05-23T00:35:28.217Z,14.96
2023-05-23T00:37:55.472Z,14.99
2023-05-23T00:39:52.141Z,14.99
2023-05-23T00:40:22.482Z,14.82
2023-05-23T00:42:49.157Z,14.39
2023-05-23T00:44:52.084Z,14.39
2023-05-23T00:45:17.077Z,14.81
2023-05-23T00:47:44.955Z,14.95
2023-05-23T00:49:52.081Z,14.95
2023-05-23T00:50:14.674Z,14.61
2023-05-23T00:52:42.417Z,14.71
2023-05-23T00:54:52.108Z,14.71
2023-05-23T00:55:09.500Z,15.10
2023-05-23T00:57:40.361Z,15.10
2023-05-23T00:59:52.121Z,15.10
2023-05-23T01:00:20.018Z,15.15
2023-05-23T01:02:47.942Z,15.13
2023-05-23T01:04:52.098Z,15.13
2023-05-23T01:05:17.689Z,14.45
2023-05-23T01:07:45.472Z,14.57
2023-05-23T01:09:52.101Z,14.57
2023-05-23T01:13:20.593Z,15.04
2023-05-23T01:14:52.110Z,15.04
2023-05-23T01:15:56.328Z,14.98
2023-05-23T01:18:43.759Z,14.44
2023-05-23T01:19:52.100Z,14.44
2023-05-23T01:21:15.902Z,14.49
2023-05-23T01:24:07.145Z,14.85
2023-05-23T01:24:52.100Z,14.85
2023-05-23T01:26:41.222Z,14.79
2023-05-23T01:29:11.853Z,14.83
2023-05-23T01:29:53.199Z,14.83
2023-05-23T01:31:44.977Z,14.78
2023-05-23T01:34:13.624Z,14.82
2023-05-23T01:34:52.074Z,14.82
2023-05-23T01:36:43.785Z,14.65
2023-05-23T01:39:11.940Z,14.87
2023-05-23T01:39:52.117Z,14.87
2023-05-23T01:41:38.467Z,14.87
2023-05-23T01:44:05.596Z,14.47
2023-05-23T01:44:52.084Z,14.47
2023-05-23T01:46:34.210Z,14.72
2023-05-23T01:49:03.906Z,14.80
2023-05-23T01:49:52.138Z,14.80
2023-05-23T01:51:31.069Z,14.77
2023-05-23T01:53:57.875Z,14.79
2023-05-23T01:54:52.072Z,14.79
2023-05-23T01:56:24.942Z,14.77
2023-05-23T01:58:51.481Z,14.50
2023-05-23T01:59:52.116Z,14.50
2023-05-23T02:01:18.156Z,14.38
2023-05-23T02:03:44.592Z,14.73
2023-05-23T02:04:52.088Z,14.73
2023-05-23T02:06:11.164Z,14.77
2023-05-23T02:08:37.764Z,14.59
2023-05-23T02:09:52.123Z,14.59
2023-05-23T02:11:04.398Z,14.70
2023-05-23T02:13:31.123Z,14.69
2023-05-23T02:14:52.109Z,14.69
2023-05-23T02:15:57.646Z,14.65
2023-05-23T02:18:26.327Z,14.63
2023-05-23T02:19:52.092Z,14.63
2023-05-23T02:20:52.853Z,14.65
2023-05-23T02:23:19.297Z,14.66
2023-05-23T02:24:52.120Z,14.66
2023-05-23T02:25:45.833Z,13.56
2023-05-23T02:28:12.875Z,14.63
2023-05-23T02:29:52.165Z,14.63
2023-05-23T02:30:39.424Z,14.51
2023-05-23T02:33:06.666Z,14.35
2023-05-23T02:34:52.125Z,14.35
2023-05-23T02:35:33.520Z,14.63
2023-05-23T02:38:00.839Z,14.55
2023-05-23T02:39:52.163Z,14.55
2023-05-23T02:40:27.180Z,14.20
2023-05-23T02:42:53.523Z,14.30
2023-05-23T02:44:52.124Z,14.30
2023-05-23T02:45:20.067Z,13.23
2023-05-23T02:47:46.702Z,14.55
2023-05-23T02:49:52.143Z,14.55
2023-05-23T02:50:13.126Z,14.58
2023-05-23T02:52:39.571Z,14.59
2023-05-23T02:54:52.083Z,14.59
2023-05-23T02:55:06.759Z,14.59
2023-05-23T02:57:33.161Z,14.21
2023-05-23T02:59:52.131Z,14.21
2023-05-23T02:59:59.602Z,14.24
2023-05-23T03:02:26.662Z,13.87
2023-05-23T03:04:53.110Z,13.96
2023-05-23T03:04:53.504Z,13.96
2023-05-23T03:07:27.455Z,14.54
2023-05-23T03:09:52.073Z,14.54
2023-05-23T03:09:54.349Z,14.53
2023-05-23T03:12:20.818Z,14.06
2023-05-23T03:14:47.215Z,14.42
2023-05-23T03:14:52.121Z,14.42
2023-05-23T03:17:14.111Z,14.24
2023-05-23T03:19:40.625Z,13.90
2023-05-23T03:19:52.110Z,13.90
2023-05-23T03:22:07.012Z,13.98
2023-05-23T03:24:33.370Z,14.33
2023-05-23T03:24:52.166Z,14.33
2023-05-23T03:27:01.420Z,14.21
2023-05-23T03:29:27.853Z,14.40
2023-05-23T03:29:52.147Z,14.40
2023-05-23T03:31:54.358Z,14.11
2023-05-23T03:34:20.894Z,14.32
2023-05-23T03:34:52.104Z,14.32
2023-05-23T03:36:47.285Z,14.33
2023-05-23T03:39:13.675Z,13.96
2023-05-23T03:39:52.180Z,13.96
2023-05-23T03:41:40.212Z,14.25
2023-05-23T03:44:06.816Z,13.75
2023-05-23T03:44:52.113Z,13.75
2023-05-23T03:46:33.316Z,13.77
2023-05-23T03:48:59.829Z,13.72
2023-05-23T03:49:52.089Z,13.72
2023-05-23T03:51:26.213Z,14.13
2023-05-23T03:53:52.662Z,13.04
2023-05-23T03:54:52.100Z,13.04
2023-05-23T03:56:19.134Z,14.02
2023-05-23T03:58:45.912Z,13.61
2023-05-23T03:59:52.102Z,13.61
2023-05-23T04:01:12.337Z,14.11
2023-05-23T04:03:38.978Z,14.29
2023-05-23T04:04:52.105Z,14.29
2023-05-23T04:06:05.896Z,13.95
2023-05-23T04:08:33.998Z,13.17
2023-05-23T04:09:52.087Z,13.17
2023-05-23T04:11:01.881Z,13.67
2023-05-23T04:13:28.955Z,14.22
2023-05-23T04:14:52.101Z,14.22
2023-05-23T04:15:56.360Z,13.56
2023-05-23T04:18:23.468Z,13.01
2023-05-23T04:19:52.129Z,13.01
2023-05-23T04:20:49.832Z,14.23
2023-05-23T04:23:16.284Z,13.32
2023-05-23T04:24:52.092Z,13.32
2023-05-23T04:25:42.860Z,13.82
2023-05-23T04:28:11.892Z,14.10
2023-05-23T04:29:52.138Z,14.10
2023-05-23T04:30:38.288Z,13.55
2023-05-23T04:33:04.914Z,13.95
2023-05-23T04:34:52.173Z,13.95
2023-05-23T04:35:34.148Z,14.04
2023-05-23T04:38:01.930Z,13.25
2023-05-23T04:39:52.208Z,13.25
2023-05-23T04:40:29.246Z,14.08
2023-05-23T04:42:56.791Z,14.10
2023-05-23T04:44:52.188Z,14.10
2023-05-23T04:45:23.642Z,13.50
2023-05-23T04:47:50.126Z,13.69
2023-05-23T04:49:52.139Z,13.69
2023-05-23T04:50:16.683Z,14.01
2023-05-23T04:52:43.260Z,13.73
2023-05-23T04:54:52.135Z,13.73
2023-05-23T04:55:09.862Z,14.14
2023-05-23T04:57:37.191Z,14.04
2023-05-23T04:59:52.128Z,14.04
2023-05-23T05:00:10.218Z,13.81
2023-05-23T05:02:37.146Z,13.88
2023-05-23T05:04:52.120Z,13.88
2023-05-23T05:05:07.358Z,13.90
2023-05-23T05:07:35.747Z,13.72
2023-05-23T05:09:52.197Z,13.72
2023-05-23T05:10:02.737Z,13.39
2023-05-23T05:12:29.117Z,14.14
2023-05-23T05:14:52.124Z,14.14
2023-05-23T05:14:55.595Z,13.90
2023-05-23T05:17:22.106Z,13.78
2023-05-23T05:19:48.668Z,14.19
2023-05-23T05:19:52.201Z,14.19
2023-05-23T05:22:15.327Z,14.10
2023-05-23T05:24:41.811Z,14.08
2023-05-23T05:24:52.124Z,14.08
2023-05-23T05:27:09.559Z,13.31
2023-05-23T05:29:36.427Z,13.68
2023-05-23T05:29:52.113Z,13.68
2023-05-23T05:32:03.397Z,13.57
2023-05-23T05:34:29.902Z,13.72
2023-05-23T05:34:52.156Z,13.72
2023-05-23T05:36:56.907Z,13.52
2023-05-23T05:39:25.957Z,13.83
2023-05-23T05:39:52.208Z,13.83
2023-05-23T05:41:52.374Z,12.82
2023-05-23T05:44:19.002Z,13.49
2023-05-23T05:44:52.274Z,13.49
2023-05-23T05:46:45.544Z,13.80
2023-05-23T05:49:12.569Z,14.00
2023-05-23T05:49:52.147Z,14.00
2023-05-23T05:51:39.168Z,13.64
2023-05-23T05:54:05.853Z,14.21
2023-05-23T05:54:52.139Z,14.21
2023-05-23T05:56:32.756Z,13.53
2023-05-23T05:58:59.248Z,13.81
2023-05-23T05:59:52.145Z,13.81
2023-05-23T06:01:26.727Z,14.22
2023-05-23T06:03:53.524Z,14.29
2023-05-23T06:04:52.150Z,14.29
2023-05-23T06:06:20.176Z,14.34
2023-05-23T06:08:46.586Z,14.29
2023-05-23T06:09:52.205Z,14.29
2023-05-23T06:11:13.169Z,14.23
2023-05-23T06:13:39.642Z,14.01
2023-05-23T06:14:52.263Z,14.01
2023-05-23T06:16:06.683Z,14.23
2023-05-23T06:18:33.115Z,14.30
2023-05-23T06:19:52.350Z,14.30
2023-05-23T06:21:00.266Z,14.02
2023-05-23T06:23:26.887Z,13.63
2023-05-23T06:24:53.031Z,13.63
2023-05-23T06:25:53.506Z,13.68
2023-05-23T06:28:19.928Z,13.34
2023-05-23T06:29:52.313Z,13.34
2023-05-23T06:30:46.431Z,14.09
2023-05-23T06:33:13.111Z,14.40
2023-05-23T06:34:52.381Z,14.40
2023-05-23T06:35:39.737Z,13.91
2023-05-23T06:38:06.386Z,13.64
2023-05-23T06:39:52.431Z,13.64
2023-05-23T06:40:32.747Z,13.95
2023-05-23T06:42:59.164Z,14.24
2023-05-23T06:44:52.437Z,14.24
2023-05-23T06:45:25.762Z,14.01
2023-05-23T06:47:52.388Z,14.06
2023-05-23T06:49:52.438Z,14.06
2023-05-23T06:50:21.987Z,14.05
2023-05-23T06:52:48.602Z,14.35
2023-05-23T06:54:52.472Z,14.35
2023-05-23T06:55:18.404Z,14.67
2023-05-23T06:57:50.509Z,14.59
2023-05-23T06:59:52.606Z,14.59
2023-05-23T07:00:17.707Z,14.43
2023-05-23T07:02:45.810Z,14.12
2023-05-23T07:04:52.652Z,14.12
2023-05-23T07:05:12.938Z,14.70
2023-05-23T07:07:39.440Z,14.20
2023-05-23T07:09:52.604Z,14.20
2023-05-23T07:10:06.434Z,14.61
2023-05-23T07:12:34.854Z,14.84
2023-05-23T07:14:52.645Z,14.84
2023-05-23T07:15:01.496Z,14.70
2023-05-23T07:17:30.179Z,14.99
2023-05-23T07:19:52.680Z,14.99
2023-05-23T07:19:56.698Z,14.65
2023-05-23T07:22:23.078Z,14.59
2023-05-23T07:24:49.464Z,14.83
2023-05-23T07:24:52.724Z,14.83
2023-05-23T07:27:16.005Z,14.60
2023-05-23T07:29:42.440Z,14.94
2023-05-23T07:29:52.770Z,14.94
2023-05-23T07:32:08.842Z,14.83
2023-05-23T07:34:35.503Z,14.15
2023-05-23T07:34:52.794Z,14.15
2023-05-23T07:37:02.017Z,14.57
2023-05-23T07:39:28.526Z,13.65
2023-05-23T07:39:52.876Z,13.65
2023-05-23T07:41:55.037Z,15.05
2023-05-23T07:44:24.609Z,14.79
2023-05-23T07:44:52.841Z,14.79
2023-05-23T07:46:51.792Z,14.96
2023-05-23T07:49:21.105Z,14.83
2023-05-23T07:49:52.862Z,14.83
2023-05-23T07:51:47.584Z,14.73
2023-05-23T07:54:16.412Z,14.46
2023-05-23T07:54:52.879Z,14.46
2023-05-23T07:56:43.569Z,14.49
2023-05-23T07:59:10.061Z,14.42
2023-05-23T07:59:52.939Z,14.42
2023-05-23T08:01:36.618Z,14.71
2023-05-23T08:04:03.964Z,14.86
2023-05-23T08:04:52.950Z,14.86
2023-05-23T08:06:33.651Z,14.65
2023-05-23T08:09:00.972Z,13.84
2023-05-23T08:09:52.977Z,13.84
2023-05-23T08:11:29.062Z,14.81
2023-05-23T08:13:55.612Z,14.59
2023-05-23T08:14:53.118Z,14.59
2023-05-23T08:16:22.934Z,14.59
2023-05-23T08:18:49.406Z,14.20
2023-05-23T08:19:53.019Z,14.20
2023-05-23T08:21:15.903Z,14.34
2023-05-23T08:23:42.265Z,14.58
2023-05-23T08:24:53.074Z,14.58
2023-05-23T08:26:08.738Z,14.72
2023-05-23T08:28:35.207Z,14.74
2023-05-23T08:29:53.289Z,14.74
2023-05-23T08:31:03.440Z,14.13
2023-05-23T08:33:29.921Z,14.88
2023-05-23T08:34:53.171Z,14.88
2023-05-23T08:35:56.403Z,14.49
2023-05-23T08:38:23.266Z,14.42
2023-05-23T08:39:53.191Z,14.42
2023-05-23T08:40:54.320Z,14.82
2023-05-23T08:43:20.859Z,14.13
2023-05-23T08:44:53.227Z,14.13
2023-05-23T08:45:49.138Z,14.76
2023-05-23T08:48:19.113Z,14.85
2023-05-23T08:49:53.253Z,14.85
2023-05-23T08:50:47.634Z,14.90
2023-05-23T08:53:20.869Z,14.63
2023-05-23T08:54:53.354Z,14.63
2023-05-23T08:55:48.857Z,14.24
2023-05-23T08:58:16.061Z,14.60
2023-05-23T08:59:53.345Z,14.60
2023-05-23T09:00:43.864Z,14.66
2023-05-23T09:03:12.422Z,14.09
2023-05-23T09:04:53.372Z,14.09
2023-05-23T09:05:39.028Z,13.83
2023-05-23T09:08:05.831Z,13.62
2023-05-23T09:09:53.520Z,13.62
2023-05-23T09:10:32.266Z,13.74
2023-05-23T09:12:58.720Z,14.45
2023-05-23T09:14:53.410Z,14.45
2023-05-23T09:15:27.246Z,13.93
2023-05-23T09:17:53.832Z,14.20
2023-05-23T09:19:53.442Z,14.20
2023-05-23T09:20:20.224Z,14.07
2023-05-23T09:22:49.452Z,13.64
2023-05-23T09:24:53.451Z,13.64
2023-05-23T09:25:16.358Z,13.87
2023-05-23T09:27:48.015Z,14.44
2023-05-23T09:29:53.506Z,14.44
2023-05-23T09:30:15.438Z,14.67
2023-05-23T09:32:42.247Z,15.43
2023-05-23T09:34:53.567Z,15.43
2023-05-23T09:35:13.916Z,15.27
2023-05-23T09:37:46.028Z,15.16
2023-05-23T09:39:53.812Z,15.16
2023-05-23T09:40:16.815Z,14.63
2023-05-23T09:42:47.702Z,14.30
2023-05-23T09:44:53.672Z,14.30
2023-05-23T09:45:16.107Z,13.28
2023-05-23T09:47:52.737Z,13.64
2023-05-23T09:49:53.710Z,13.64
2023-05-23T09:50:20.204Z,13.82
2023-05-23T09:52:47.206Z,12.87
2023-05-23T09:54:53.755Z,12.87
2023-05-23T09:55:14.757Z,13.79
2023-05-23T09:57:42.797Z,13.74
2023-05-23T09:59:53.920Z,13.74
2023-05-23T10:00:13.860Z,13.38
2023-05-23T10:02:43.633Z,13.57
2023-05-23T10:04:56.265Z,13.57
2023-05-23T10:05:17.992Z,13.64
2023-05-23T10:07:45.220Z,13.71
2023-05-23T10:09:53.801Z,13.71
2023-05-23T10:10:13.212Z,13.16
2023-05-23T10:12:48.585Z,12.99
2023-05-23T10:14:53.902Z,12.99
2023-05-23T10:15:17.171Z,13.85
2023-05-23T10:18:01.451Z,13.95
2023-05-23T10:19:53.932Z,13.95
2023-05-23T10:20:33.850Z,13.80
2023-05-23T10:23:01.464Z,13.64
2023-05-23T10:24:53.982Z,13.64
2023-05-23T10:25:29.056Z,13.59
2023-05-23T10:28:03.170Z,12.73
2023-05-23T10:29:54.013Z,12.73
2023-05-23T10:30:31.409Z,12.96
2023-05-23T10:32:59.258Z,13.72
2023-05-23T10:34:54.041Z,13.72
2023-05-23T10:35:44.606Z,13.77
2023-05-23T10:38:30.663Z,13.95
2023-05-23T10:39:54.158Z,13.95
2023-05-23T10:41:11.971Z,13.86
2023-05-23T10:44:02.247Z,13.48
2023-05-23T10:44:54.097Z,13.48
2023-05-23T10:46:52.777Z,14.10
2023-05-23T10:49:19.982Z,14.09
2023-05-23T10:49:54.104Z,14.09
2023-05-23T10:51:52.515Z,13.88
2023-05-23T10:54:22.577Z,14.81
2023-05-23T10:54:54.080Z,14.81
2023-05-23T10:57:06.227Z,14.84
2023-05-23T10:59:32.852Z,15.41
2023-05-23T10:59:54.030Z,15.41
2023-05-23T11:02:01.209Z,14.78
2023-05-23T11:04:31.188Z,15.46
2023-05-23T11:04:54.219Z,15.46
2023-05-23T11:07:00.850Z,15.76
2023-05-23T11:09:27.271Z,16.13
2023-05-23T11:09:54.034Z,16.13
2023-05-23T11:11:54.809Z,16.49
2023-05-23T11:14:32.928Z,16.64
2023-05-23T11:14:55.357Z,16.64
2023-05-23T11:17:19.386Z,17.44
2023-05-23T11:20:09.592Z,16.83
2023-05-23T11:20:09.937Z,16.83
2023-05-23T11:22:36.840Z,16.50
2023-05-23T11:24:54.013Z,16.50
2023-05-23T11:25:09.210Z,16.54
2023-05-23T11:27:40.670Z,16.78
2023-05-23T11:29:54.046Z,16.78
2023-05-23T11:30:08.232Z,16.05
2023-05-23T11:32:35.919Z,16.47
2023-05-23T11:34:54.073Z,16.47
2023-05-23T11:35:07.147Z,16.24
2023-05-23T11:37:34.255Z,15.22
2023-05-23T11:39:54.054Z,15.22
2023-05-23T11:40:37.027Z,15.96
2023-05-23T11:43:06.036Z,15.75
2023-05-23T11:44:54.073Z,15.75
2023-05-23T11:45:34.065Z,15.73
2023-05-23T11:48:10.025Z,16.10
2023-05-23T11:49:54.093Z,16.10
2023-05-23T11:50:48.180Z,15.41
2023-05-23T11:53:20.768Z,15.20
2023-05-23T11:54:55.686Z,15.20
2023-05-23T11:55:54.869Z,15.37
2023-05-23T11:58:22.951Z,15.60
2023-05-23T11:59:54.065Z,15.60
2023-05-23T12:00:49.769Z,15.87
2023-05-23T12:03:16.456Z,16.05
2023-05-23T12:04:54.127Z,16.05
2023-05-23T12:05:44.779Z,17.06
2023-05-23T12:08:13.736Z,17.00
2023-05-23T12:09:54.052Z,17.00
2023-05-23T12:10:52.421Z,16.81
2023-05-23T12:13:19.787Z,16.66
2023-05-23T12:14:54.087Z,16.66
2023-05-23T12:15:47.769Z,15.42
2023-05-23T12:18:16.252Z,16.07
2023-05-23T12:19:54.085Z,16.07
2023-05-23T12:20:42.945Z,16.31
2023-05-23T12:23:18.247Z,16.07
2023-05-23T12:24:54.055Z,16.07
2023-05-23T12:25:44.783Z,16.79
2023-05-23T12:28:13.684Z,16.86
2023-05-23T12:29:54.086Z,16.86
2023-05-23T12:30:43.885Z,17.27
2023-05-23T12:33:10.550Z,16.85
2023-05-23T12:34:54.062Z,16.85
2023-05-23T12:35:37.086Z,17.35
2023-05-23T12:38:07.127Z,17.57
2023-05-23T12:39:54.120Z,17.57
2023-05-23T12:40:33.597Z,17.66
2023-05-23T12:43:00.076Z,17.25
2023-05-23T12:44:54.054Z,17.25
2023-05-23T12:45:34.779Z,18.03
2023-05-23T12:48:02.017Z,18.33
2023-05-23T12:49:54.040Z,18.33
2023-05-23T12:50:28.609Z,17.14
2023-05-23T12:52:55.110Z,17.04
2023-05-23T12:54:54.060Z,17.04
2023-05-23T12:55:21.633Z,16.42
2023-05-23T12:57:48.276Z,16.08
2023-05-23T12:59:54.067Z,16.08
2023-05-23T13:00:15.156Z,16.97
2023-05-23T13:02:41.667Z,16.49
2023-05-23T13:04:54.048Z,16.49
2023-05-23T13:05:08.679Z,16.21
2023-05-23T13:07:35.378Z,16.19
2023-05-23T13:09:54.052Z,16.19
2023-05-23T13:10:02.496Z,15.94
2023-05-23T13:12:29.617Z,17.03
2023-05-23T13:14:54.060Z,17.03
2023-05-23T13:14:56.288Z,16.64
2023-05-23T13:17:22.928Z,16.25
2023-05-23T13:19:49.435Z,16.54
2023-05-23T13:19:54.062Z,16.54
2023-05-23T13:22:16.003Z,17.08
2023-05-23T13:24:43.997Z,17.27
2023-05-23T13:24:54.169Z,17.27
2023-05-23T13:27:11.001Z,17.15
2023-05-23T13:29:37.728Z,17.11
2023-05-23T13:29:54.071Z,17.11
2023-05-23T13:32:04.195Z,17.83
2023-05-23T13:34:30.588Z,18.25
2023-05-23T13:34:54.076Z,18.25
2023-05-23T13:36:57.057Z,17.51
2023-05-23T13:39:23.584Z,17.16
2023-05-23T13:39:54.121Z,17.16
2023-05-23T13:41:50.569Z,17.21
2023-05-23T13:44:17.087Z,18.12
2023-05-23T13:44:54.080Z,18.12
2023-05-23T13:46:44.020Z,17.85
2023-05-23T13:49:10.488Z,17.06
2023-05-23T13:49:54.061Z,17.06
2023-05-23T13:51:40.021Z,17.17
2023-05-23T13:54:06.533Z,17.51
2023-05-23T13:54:54.072Z,17.51
2023-05-23T13:56:33.707Z,16.77
2023-05-23T13:59:00.623Z,16.85
2023-05-23T13:59:54.077Z,16.85
2023-05-23T14:01:27.203Z,17.14
2023-05-23T14:03:53.755Z,16.80
2023-05-23T14:04:54.115Z,16.80
2023-05-23T14:06:20.135Z,16.59
2023-05-23T14:08:46.648Z,16.61
2023-05-23T14:09:54.106Z,16.61
2023-05-23T14:11:13.058Z,16.61
2023-05-23T14:13:41.823Z,16.36
2023-05-23T14:14:54.060Z,16.36
2023-05-23T14:16:08.368Z,15.72
2023-05-23T14:18:34.913Z,16.32
2023-05-23T14:19:54.066Z,16.32
2023-05-23T14:21:04.366Z,17.18
2023-05-23T14:23:30.922Z,16.89
2023-05-23T14:24:54.059Z,16.89
2023-05-23T14:25:57.402Z,16.79
2023-05-23T14:28:24.053Z,16.90
2023-05-23T14:29:54.103Z,16.90
2023-05-23T14:30:50.587Z,16.94
2023-05-23T14:33:17.689Z,17.13
2023-05-23T14:34:54.065Z,17.13
2023-05-23T14:35:44.267Z,16.81
2023-05-23T14:38:10.954Z,16.32
2023-05-23T14:39:54.171Z,16.32
2023-05-23T14:40:37.406Z,15.60
2023-05-23T14:43:03.775Z,16.60
2023-05-23T14:44:54.097Z,16.60
2023-05-23T14:45:30.470Z,17.15
2023-05-23T14:47:57.017Z,17.67
2023-05-23T14:49:54.110Z,17.67
2023-05-23T14:50:23.488Z,17.45
2023-05-23T14:52:49.950Z,18.10
2023-05-23T14:54:54.123Z,18.10
2023-05-23T14:55:16.497Z,18.48
2023-05-23T14:57:43.185Z,18.93
2023-05-23T14:59:54.108Z,18.93
2023-05-23T15:00:11.557Z,18.58
2023-05-23T15:02:38.121Z,17.59
2023-05-23T15:04:54.101Z,17.59
2023-05-23T15:05:05.244Z,17.86
2023-05-23T15:07:32.301Z,17.64
2023-05-23T15:09:54.085Z,17.64
2023-05-23T15:10:02.063Z,18.05
2023-05-23T15:12:28.688Z,17.54
2023-05-23T15:15:02.907Z,18.34
2023-05-23T15:15:03.075Z,18.34
2023-05-23T15:17:33.724Z,18.42
2023-05-23T15:19:56.162Z,18.42
2023-05-23T15:20:00.737Z,18.59
2023-05-23T15:22:36.703Z,18.09
2023-05-23T15:24:54.106Z,18.09
2023-05-23T15:25:06.769Z,17.95
2023-05-23T15:27:33.229Z,17.52
2023-05-23T15:29:54.065Z,17.52
2023-05-23T15:29:59.826Z,18.38
2023-05-23T15:32:26.326Z,18.67
2023-05-23T15:34:52.950Z,18.71
2023-05-23T15:34:54.077Z,18.71
2023-05-23T15:37:20.057Z,18.42
2023-05-23T15:39:46.916Z,18.26
2023-05-23T15:39:54.155Z,18.26
2023-05-23T15:42:13.358Z,18.44
2023-05-23T15:44:39.963Z,18.46
2023-05-23T15:44:54.150Z,18.46
2023-05-23T15:47:06.458Z,17.97
2023-05-23T15:49:32.928Z,17.60
2023-05-23T15:49:54.081Z,17.60
2023-05-23T15:51:59.366Z,17.49
2023-05-23T15:54:25.881Z,17.86
2023-05-23T15:54:54.158Z,17.86
2023-05-23T15:56:52.339Z,18.21
2023-05-23T15:59:18.819Z,18.34
2023-05-23T15:59:54.086Z,18.34
2023-05-23T16:01:45.245Z,18.42
2023-05-23T16:04:11.800Z,18.60
2023-05-23T16:04:54.067Z,18.60
2023-05-23T16:06:38.996Z,18.71
2023-05-23T16:09:07.922Z,17.34
2023-05-23T16:09:54.051Z,17.34
2023-05-23T16:11:34.401Z,18.00
2023-05-23T16:14:00.827Z,17.63
2023-05-23T16:14:54.142Z,17.63
2023-05-23T16:16:27.302Z,17.62
2023-05-23T16:18:56.841Z,16.65
2023-05-23T16:19:54.101Z,16.65
2023-05-23T16:21:23.296Z,16.71
2023-05-23T16:23:50.566Z,17.01
2023-05-23T16:24:55.519Z,17.01
2023-05-23T16:26:18.638Z,17.01
2023-05-23T16:28:45.426Z,16.47
2023-05-23T16:29:54.097Z,16.47
2023-05-23T16:31:16.829Z,16.97
2023-05-23T16:33:44.760Z,17.51
2023-05-23T16:34:54.841Z,17.51
2023-05-23T16:36:11.229Z,17.81
2023-05-23T16:38:37.773Z,17.14
2023-05-23T16:39:54.081Z,17.14
2023-05-23T16:41:06.336Z,17.07
2023-05-23T16:43:34.004Z,16.85
2023-05-23T16:44:54.164Z,16.85
2023-05-23T16:46:00.612Z,16.30
2023-05-23T16:48:27.304Z,16.19
2023-05-23T16:49:54.060Z,16.19
2023-05-23T16:50:55.209Z,16.24
2023-05-23T16:53:22.235Z,15.96
2023-05-23T16:54:54.116Z,15.96
2023-05-23T16:55:49.760Z,15.68
2023-05-23T16:58:20.897Z,16.14
2023-05-23T16:59:54.082Z,16.14
2023-05-23T17:00:48.612Z,16.34
2023-05-23T17:03:15.369Z,16.38
2023-05-23T17:04:54.132Z,16.38
2023-05-23T17:05:42.283Z,16.19
2023-05-23T17:08:09.047Z,16.04
2023-05-23T17:09:54.087Z,16.04
2023-05-23T17:10:36.483Z,15.71
2023-05-23T17:13:02.960Z,15.91
2023-05-23T17:14:54.099Z,15.91
2023-05-23T17:15:29.581Z,14.69
2023-05-23T17:17:56.146Z,15.82
2023-05-23T17:19:54.078Z,15.82
2023-05-23T17:20:24.163Z,15.15
2023-05-23T17:22:51.822Z,15.52
2023-05-23T17:24:54.093Z,15.52
2023-05-23T17:25:18.281Z,14.92
2023-05-23T17:27:44.983Z,15.37
2023-05-23T17:29:54.112Z,15.37
2023-05-23T17:30:14.595Z,15.22
2023-05-23T17:32:41.117Z,15.84
2023-05-23T17:34:54.114Z,15.84
2023-05-23T17:35:07.904Z,16.20
2023-05-23T17:37:36.181Z,16.22
2023-05-23T17:39:56.754Z,16.22
2023-05-23T17:40:03.311Z,15.81
2023-05-23T17:42:29.761Z,15.34
2023-05-23T17:44:54.114Z,15.34
2023-05-23T17:44:56.150Z,15.70
2023-05-23T17:47:22.656Z,15.72
2023-05-23T17:49:49.173Z,15.51
2023-05-23T17:49:54.098Z,15.51
2023-05-23T17:52:15.728Z,15.70
2023-05-23T17:54:42.285Z,14.77
2023-05-23T17:54:54.105Z,14.77
2023-05-23T17:57:08.668Z,15.48
2023-05-23T17:59:35.232Z,15.09
2023-05-23T17:59:54.102Z,15.09
2023-05-23T18:02:01.690Z,15.39
2023-05-23T18:04:28.160Z,14.81
2023-05-23T18:04:54.111Z,14.81
2023-05-23T18:06:54.671Z,15.05
2023-05-23T18:09:21.254Z,14.82
2023-05-23T18:09:54.114Z,14.82
2023-05-23T18:11:48.141Z,14.61
2023-05-23T18:14:14.633Z,14.14
2023-05-23T18:14:54.096Z,14.14
2023-05-23T18:16:41.518Z,13.82
2023-05-23T18:19:08.236Z,14.53
2023-05-23T18:19:54.081Z,14.53
2023-05-23T18:21:34.868Z,14.61
2023-05-23T18:24:02.793Z,14.43
2023-05-23T18:24:54.104Z,14.43
2023-05-23T18:26:29.364Z,14.18
2023-05-23T18:28:59.565Z,14.48
2023-05-23T18:29:54.118Z,14.48
2023-05-23T18:31:26.012Z,14.14
2023-05-23T18:33:52.580Z,14.17
2023-05-23T18:34:54.107Z,14.17
2023-05-23T18:36:19.159Z,14.03
2023-05-23T18:38:46.126Z,14.40
2023-05-23T18:39:54.135Z,14.40
2023-05-23T18:41:14.909Z,14.03
2023-05-23T18:43:41.607Z,14.23
2023-05-23T18:44:54.103Z,14.23
2023-05-23T18:46:08.230Z,13.24
2023-05-23T18:48:35.916Z,13.26
2023-05-23T18:49:54.085Z,13.26
2023-05-23T18:51:02.817Z,13.84
2023-05-23T18:53:29.303Z,14.12
2023-05-23T18:54:54.228Z,14.12
2023-05-23T18:55:55.923Z,13.89
2023-05-23T18:58:25.094Z,13.68
2023-05-23T18:59:54.120Z,13.68
2023-05-23T19:00:51.498Z,13.70
2023-05-23T19:03:18.099Z,12.48
2023-05-23T19:04:54.121Z,12.48
2023-05-23T19:05:44.617Z,13.25
2023-05-23T19:08:11.162Z,13.24
2023-05-23T19:09:54.112Z,13.24
2023-05-23T19:10:37.595Z,12.81
2023-05-23T19:13:04.106Z,13.18
2023-05-23T19:14:54.101Z,13.18
2023-05-23T19:15:30.607Z,13.20
2023-05-23T19:17:57.159Z,13.08
2023-05-23T19:19:54.107Z,13.08
2023-05-23T19:20:23.678Z,12.45
2023-05-23T19:22:52.276Z,12.05
2023-05-23T19:24:54.093Z,12.05
2023-05-23T19:25:20.314Z,11.82
2023-05-23T19:27:46.832Z,12.32
2023-05-23T19:29:54.117Z,12.32
2023-05-23T19:30:13.303Z,12.45
2023-05-23T19:32:39.822Z,12.60
2023-05-23T19:34:54.192Z,12.60
2023-05-23T19:35:06.650Z,12.26
2023-05-23T19:37:33.410Z,12.21
2023-05-23T19:39:54.111Z,12.21
2023-05-23T19:40:00.616Z,12.08
2023-05-23T19:42:27.516Z,11.45
2023-05-23T19:44:54.887Z,11.66
2023-05-23T19:44:55.037Z,11.66
2023-05-23T19:47:21.309Z,12.05
2023-05-23T19:49:47.741Z,12.01
2023-05-23T19:49:54.090Z,12.01
2023-05-23T19:52:14.310Z,11.51
2023-05-23T19:54:40.960Z,11.90
2023-05-23T19:54:54.143Z,11.90
2023-05-23T19:57:07.778Z,11.95
2023-05-23T19:59:34.240Z,11.65
2023-05-23T19:59:54.181Z,11.65
2023-05-23T20:02:00.872Z,11.39
2023-05-23T20:04:28.442Z,11.65
2023-05-23T20:04:54.121Z,11.65
2023-05-23T20:06:55.906Z,11.71
2023-05-23T20:09:23.071Z,11.68
2023-05-23T20:09:54.096Z,11.68
2023-05-23T20:11:49.587Z,11.36
2023-05-23T20:14:16.026Z,11.47
2023-05-23T20:14:54.127Z,11.47
2023-05-23T20:16:42.554Z,11.63
2023-05-23T20:19:09.771Z,11.27
2023-05-23T20:19:54.121Z,11.27
2023-05-23T20:21:36.548Z,11.24
2023-05-23T20:24:03.269Z,10.31
2023-05-23T20:24:54.146Z,10.31
2023-05-23T20:26:29.755Z,11.28
2023-05-23T20:28:59.839Z,11.09
2023-05-23T20:29:54.116Z,11.09
2023-05-23T20:31:26.266Z,11.08
2023-05-23T20:33:52.767Z,11.04
2023-05-23T20:34:54.114Z,11.04
2023-05-23T20:36:20.729Z,10.91
2023-05-23T20:38:47.810Z,10.87
2023-05-23T20:39:54.133Z,10.87
2023-05-23T20:41:14.386Z,11.33
2023-05-23T20:43:40.780Z,10.64
2023-05-23T20:44:54.101Z,10.64
2023-05-23T20:46:09.119Z,11.08
2023-05-23T20:48:35.894Z,11.20
2023-05-23T20:49:54.141Z,11.20
2023-05-23T20:51:02.292Z,11.13
2023-05-23T20:53:29.675Z,10.42
2023-05-23T20:54:54.149Z,10.42
2023-05-23T20:55:56.372Z,11.01
2023-05-23T20:58:22.750Z,10.94
2023-05-23T20:59:54.144Z,10.94
2023-05-23T21:00:51.782Z,10.56
2023-05-23T21:03:18.558Z,10.51
2023-05-23T21:04:54.100Z,10.51
2023-05-23T21:05:45.303Z,10.75
2023-05-23T21:08:11.921Z,10.34
2023-05-23T21:09:54.162Z,10.34
2023-05-23T21:10:38.367Z,10.70
2023-05-23T21:13:04.774Z,10.65
2023-05-23T21:14:54.145Z,10.65
2023-05-23T21:15:31.242Z,10.64
2023-05-23T21:17:57.746Z,10.55
2023-05-23T21:19:54.147Z,10.55